Aviation Digital Data Service (ADDS)

Output produced by METARs form (0939 UTC 25 August 2016)
found at http://www.aviationweather.gov/adds/metars/
 
METAR text: EPBY 250930Z 17006KT 110V230 CAVOK 23/14 Q1026
Conditions at: EPBY (BYDGOSZCZ , PL) observed 0930 UTC 25 August 2016
Temperature: 23.0°C (73°F)
Dewpoint: 14.0°C (57°F) [RH = 57%]
Pressure (altimeter): 30.30 inches Hg (1026.0 mb)
Winds: from the S (170 degrees) at 7 MPH (6 knots; 3.1 m/s)
Visibility: 6 or more miles (10+ km)
Ceiling: ceiling and visibility are OK
Clouds: unknown
Weather: no significant weather observed at this time

Forecast for: EPBY (BYDGOSZCZ , PL)
Text: TAF EPBY 250530Z 2506/2606 15005KT CAVOK
Forecast period: 0600 UTC 25 August 2016 to 0600 UTC 26 August 2016
Forecast type: FROM: standard forecast or significant change
Winds: from the SSE (150 degrees) at 6 MPH (5 knots; 2.6 m/s)
Visibility: 6 or more miles (10+ km)
Clouds: not forecast
Weather: NSW  (no significant weather)